createdAt,value
2023-05-11T00:02:20.751Z,21.90
2023-05-11T00:04:47.861Z,21.60
2023-05-11T00:07:15.034Z,21.40
2023-05-11T00:09:42.218Z,21.20
2023-05-11T00:12:09.164Z,21.30
2023-05-11T00:14:36.240Z,21.30
2023-05-11T00:17:03.384Z,21.60
2023-05-11T00:19:31.892Z,21.40
2023-05-11T00:21:59.860Z,21.20
2023-05-11T00:24:26.923Z,21.20
2023-05-11T00:26:53.908Z,21.20
2023-05-11T00:29:21.142Z,21.40
2023-05-11T00:31:48.451Z,21.70
2023-05-11T00:34:16.604Z,21.80
2023-05-11T00:36:44.448Z,21.40
2023-05-11T00:39:12.625Z,21.10
2023-05-11T00:41:39.904Z,21.30
2023-05-11T00:44:07.123Z,21.30
2023-05-11T00:46:34.349Z,21.70
2023-05-11T00:49:01.558Z,21.30
2023-05-11T00:51:29.034Z,21.40
2023-05-11T00:53:56.440Z,21.10
2023-05-11T00:56:23.622Z,21.10
2023-05-11T00:58:50.814Z,21.10
2023-05-11T01:01:19.109Z,21.00
2023-05-11T01:03:47.634Z,21.10
2023-05-11T01:06:28.248Z,21.60
2023-05-11T01:09:16.017Z,21.50
2023-05-11T01:11:51.813Z,21.10
2023-05-11T01:14:46.615Z,21.80
2023-05-11T01:17:30.738Z,21.80
2023-05-11T01:20:06.055Z,21.70
2023-05-11T01:22:51.717Z,21.70
2023-05-11T01:25:24.878Z,21.60
2023-05-11T01:28:25.147Z,21.50
2023-05-11T01:30:53.788Z,21.70
2023-05-11T01:33:27.987Z,21.30
2023-05-11T01:36:04.646Z,21.20
2023-05-11T01:38:36.993Z,21.20
2023-05-11T01:41:12.252Z,21.10
2023-05-11T01:43:41.377Z,21.30
2023-05-11T01:46:10.483Z,21.50
2023-05-11T01:48:41.097Z,22.00
2023-05-11T01:51:09.589Z,21.50
2023-05-11T01:53:39.810Z,21.50
2023-05-11T01:56:07.740Z,21.70
2023-05-11T01:58:37.276Z,21.50
2023-05-11T02:01:05.129Z,22.00
2023-05-11T02:03:35.170Z,21.80
2023-05-11T02:06:04.986Z,22.00
2023-05-11T02:08:35.078Z,22.00
2023-05-11T02:11:04.311Z,22.40
2023-05-11T02:13:33.522Z,21.60
2023-05-11T02:16:02.763Z,21.90
2023-05-11T02:18:31.559Z,22.20
2023-05-11T02:21:00.463Z,22.00
2023-05-11T02:23:30.855Z,22.40
2023-05-11T02:25:58.420Z,22.20
2023-05-11T02:28:25.481Z,22.20
2023-05-11T02:30:56.002Z,22.10
2023-05-11T02:33:33.204Z,21.80
2023-05-11T02:36:02.395Z,21.90
2023-05-11T02:38:38.236Z,21.90
2023-05-11T02:41:11.837Z,22.30
2023-05-11T02:43:45.000Z,22.10
2023-05-11T02:46:20.157Z,22.30
2023-05-11T02:48:51.639Z,21.80
2023-05-11T02:51:24.577Z,21.80
2023-05-11T02:53:55.073Z,22.30
2023-05-11T02:56:23.795Z,22.20
2023-05-11T02:58:51.098Z,22.50
2023-05-11T03:01:18.579Z,22.40
2023-05-11T03:03:46.310Z,22.10
2023-05-11T03:06:13.858Z,22.20
2023-05-11T03:08:42.172Z,22.30
2023-05-11T03:11:12.731Z,22.00
2023-05-11T03:13:39.968Z,22.30
2023-05-11T03:16:07.849Z,22.30
2023-05-11T03:18:36.911Z,22.00
2023-05-11T03:21:05.775Z,21.60
2023-05-11T03:23:35.068Z,22.20
2023-05-11T03:26:02.761Z,22.30
2023-05-11T03:28:31.399Z,21.90
2023-05-11T03:30:58.703Z,21.80
2023-05-11T03:33:25.924Z,21.60
2023-05-11T03:35:54.245Z,21.20
2023-05-11T03:38:24.708Z,21.40
2023-05-11T03:40:53.819Z,21.40
2023-05-11T03:43:22.217Z,21.60
2023-05-11T03:45:53.410Z,21.40
2023-05-11T03:48:21.289Z,21.30
2023-05-11T03:50:49.775Z,21.20
2023-05-11T03:53:17.724Z,21.50
2023-05-11T03:55:44.881Z,21.10
2023-05-11T03:58:12.353Z,21.30
2023-05-11T04:00:42.919Z,21.10
2023-05-11T04:03:12.630Z,20.80
2023-05-11T04:05:40.762Z,21.50
2023-05-11T04:08:07.825Z,21.10
2023-05-11T04:10:35.177Z,21.30
2023-05-11T04:13:02.491Z,21.50
2023-05-11T04:15:30.072Z,21.70
2023-05-11T04:17:57.151Z,21.70
2023-05-11T04:20:24.361Z,21.80
2023-05-11T04:22:51.551Z,21.70
2023-05-11T04:25:21.060Z,21.20
2023-05-11T04:27:48.153Z,21.40
2023-05-11T04:30:15.784Z,21.00
2023-05-11T04:32:42.915Z,21.30
2023-05-11T04:35:10.190Z,20.90
2023-05-11T04:37:37.757Z,20.80
2023-05-11T04:40:05.304Z,20.70
2023-05-11T04:42:32.520Z,20.60
2023-05-11T04:44:59.590Z,20.60
2023-05-11T04:47:26.599Z,20.60
2023-05-11T04:49:54.058Z,20.30
2023-05-11T04:52:21.700Z,20.50
2023-05-11T04:54:48.821Z,20.30
2023-05-11T04:57:15.879Z,20.60
2023-05-11T04:59:42.943Z,20.80
2023-05-11T05:02:10.039Z,20.50
2023-05-11T05:04:37.119Z,20.30
2023-05-11T05:07:04.686Z,20.20
2023-05-11T05:09:31.735Z,20.20
2023-05-11T05:11:58.939Z,20.60
2023-05-11T05:14:26.010Z,20.70
2023-05-11T05:16:54.610Z,20.90
2023-05-11T05:19:21.685Z,21.10
2023-05-11T05:21:48.868Z,21.70
2023-05-11T05:24:16.017Z,21.70
2023-05-11T05:26:43.565Z,21.00
2023-05-11T05:29:10.748Z,20.90
2023-05-11T05:31:37.712Z,21.00
2023-05-11T05:34:04.762Z,20.70
2023-05-11T05:36:32.553Z,20.60
2023-05-11T05:39:00.261Z,20.70
2023-05-11T05:41:27.341Z,20.40
2023-05-11T05:43:54.415Z,20.80
2023-05-11T05:46:21.518Z,20.40
2023-05-11T05:48:48.533Z,20.90
2023-05-11T05:51:16.687Z,20.70
2023-05-11T05:53:43.939Z,20.90
2023-05-11T05:56:10.977Z,20.50
2023-05-11T05:58:38.061Z,19.80
2023-05-11T06:01:05.143Z,19.80
2023-05-11T06:03:32.488Z,20.70
2023-05-11T06:05:59.601Z,20.50
2023-05-11T06:08:26.957Z,20.20
2023-05-11T06:10:54.194Z,20.80
2023-05-11T06:13:21.551Z,20.60
2023-05-11T06:15:48.573Z,20.60
2023-05-11T06:18:18.395Z,19.90
2023-05-11T06:20:48.353Z,20.40
2023-05-11T06:23:15.461Z,20.30
2023-05-11T06:25:42.509Z,20.10
2023-05-11T06:28:09.576Z,19.80
2023-05-11T06:30:36.626Z,20.10
2023-05-11T06:33:03.691Z,19.80
2023-05-11T06:35:30.791Z,19.70
2023-05-11T06:37:58.047Z,19.90
2023-05-11T06:40:25.469Z,19.60
2023-05-11T06:42:52.703Z,19.60
2023-05-11T06:45:19.796Z,19.30
2023-05-11T06:47:46.887Z,19.50
2023-05-11T06:50:14.532Z,19.30
2023-05-11T06:52:42.740Z,19.80
2023-05-11T06:55:14.911Z,19.50
2023-05-11T06:57:42.166Z,19.20
2023-05-11T07:00:09.916Z,19.20
2023-05-11T07:02:37.060Z,19.00
2023-05-11T07:05:04.541Z,19.00
2023-05-11T07:07:33.627Z,19.00
2023-05-11T07:10:01.105Z,18.70
2023-05-11T07:12:28.156Z,18.40
2023-05-11T07:14:55.224Z,18.60
2023-05-11T07:17:22.232Z,18.40
2023-05-11T07:19:52.326Z,18.10
2023-05-11T07:22:19.676Z,18.40
2023-05-11T07:24:46.878Z,18.30
2023-05-11T07:27:15.301Z,18.60
2023-05-11T07:29:42.448Z,18.30
2023-05-11T07:32:09.473Z,18.30
2023-05-11T07:34:36.715Z,18.00
2023-05-11T07:37:04.129Z,18.40
2023-05-11T07:39:31.143Z,18.10
2023-05-11T07:41:58.203Z,18.20
2023-05-11T07:44:25.606Z,18.30
2023-05-11T07:46:52.957Z,17.90
2023-05-11T07:49:25.411Z,18.30
2023-05-11T07:52:02.496Z,17.60
2023-05-11T07:54:29.694Z,17.80
2023-05-11T07:56:57.099Z,17.00
2023-05-11T07:59:24.294Z,17.70
2023-05-11T08:01:51.278Z,17.40
2023-05-11T08:04:18.766Z,17.40
2023-05-11T08:06:45.822Z,17.50
2023-05-11T08:09:13.078Z,17.20
2023-05-11T08:11:40.147Z,16.90
2023-05-11T08:14:07.696Z,17.00
2023-05-11T08:16:37.116Z,17.00
2023-05-11T08:19:04.322Z,17.00
2023-05-11T08:21:33.425Z,16.60
2023-05-11T08:24:00.408Z,16.70
2023-05-11T08:26:27.496Z,17.70
2023-05-11T08:28:54.533Z,17.50
2023-05-11T08:31:21.623Z,18.00
2023-05-11T08:33:48.832Z,16.90
2023-05-11T08:36:16.549Z,17.30
2023-05-11T08:38:44.174Z,17.60
2023-05-11T08:41:14.001Z,17.60
2023-05-11T08:43:41.283Z,17.40
2023-05-11T08:46:11.355Z,17.10
2023-05-11T08:48:38.663Z,17.50
2023-05-11T08:51:06.444Z,17.00
2023-05-11T08:53:33.590Z,17.30
2023-05-11T08:56:02.931Z,16.80
2023-05-11T08:58:32.407Z,17.00
2023-05-11T09:00:59.751Z,16.80
2023-05-11T09:03:30.696Z,16.70
2023-05-11T09:05:58.936Z,16.60
2023-05-11T09:08:30.605Z,17.30
2023-05-11T09:10:58.539Z,16.50
2023-05-11T09:22:07.443Z,16.40
2023-05-11T09:24:34.648Z,16.40
2023-05-11T09:27:12.007Z,16.30
2023-05-11T09:29:39.016Z,16.60
2023-05-11T09:32:06.486Z,16.30
2023-05-11T09:34:33.532Z,16.20
2023-05-11T09:37:00.509Z,16.30
2023-05-11T09:39:44.660Z,16.20
2023-05-11T09:42:24.607Z,15.90
2023-05-11T09:44:53.140Z,16.60
2023-05-11T09:47:22.640Z,16.20
2023-05-11T09:49:49.826Z,15.90
2023-05-11T09:52:18.758Z,16.60
2023-05-11T09:54:47.888Z,16.50
2023-05-11T09:57:29.568Z,16.10
2023-05-11T09:59:58.269Z,16.20
2023-05-11T10:02:33.350Z,16.00
2023-05-11T10:05:03.934Z,16.30
2023-05-11T10:07:31.750Z,16.10
2023-05-11T10:10:01.965Z,16.20
2023-05-11T10:12:30.536Z,15.90
2023-05-11T10:15:07.960Z,16.40
2023-05-11T10:17:38.018Z,16.80
2023-05-11T10:20:07.003Z,16.80
2023-05-11T10:22:35.480Z,16.30
2023-05-11T10:25:07.534Z,16.30
2023-05-11T10:27:35.000Z,16.40
2023-05-11T10:30:03.996Z,16.00
2023-05-11T10:32:37.470Z,16.40
2023-05-11T10:35:08.400Z,16.50
2023-05-11T10:37:35.577Z,16.00
2023-05-11T10:40:03.263Z,16.00
2023-05-11T10:43:07.088Z,16.20
2023-05-11T10:45:47.829Z,16.20
2023-05-11T10:48:32.768Z,15.50
2023-05-11T10:51:20.384Z,15.80
2023-05-11T10:54:37.533Z,15.80
2023-05-11T10:57:33.880Z,16.10
2023-05-11T11:00:43.766Z,15.90
2023-05-11T11:03:12.580Z,15.80
2023-05-11T11:05:40.463Z,15.80
2023-05-11T11:08:09.534Z,15.80
2023-05-11T11:10:49.544Z,15.70
2023-05-11T11:13:18.377Z,15.70
2023-05-11T11:15:54.622Z,15.70
2023-05-11T11:18:29.623Z,15.80
2023-05-11T11:20:58.780Z,15.10
2023-05-11T11:23:43.916Z,15.20
2023-05-11T11:26:16.907Z,15.30
2023-05-11T11:29:02.114Z,15.40
2023-05-11T11:31:33.362Z,15.30
2023-05-11T11:34:29.576Z,15.30
2023-05-11T11:36:58.641Z,15.80
2023-05-11T11:39:27.054Z,15.50
2023-05-11T11:42:34.831Z,15.40
2023-05-11T11:45:28.732Z,15.40
2023-05-11T11:48:16.130Z,15.60
2023-05-11T11:50:45.054Z,15.30
2023-05-11T11:53:14.350Z,15.20
2023-05-11T11:55:52.118Z,15.10
2023-05-11T11:58:46.975Z,15.00
2023-05-11T12:01:19.179Z,15.50
2023-05-11T12:04:07.539Z,15.60
2023-05-11T12:06:39.787Z,15.60
2023-05-11T12:09:07.863Z,15.20
2023-05-11T12:11:35.650Z,15.30
2023-05-11T12:14:03.213Z,14.60
2023-05-11T12:16:30.681Z,15.00
2023-05-11T12:19:01.908Z,15.20
2023-05-11T12:21:34.447Z,14.90
2023-05-11T12:24:04.607Z,14.50
2023-05-11T12:26:32.666Z,15.30
2023-05-11T12:29:08.785Z,15.20
2023-05-11T12:31:37.362Z,15.20
2023-05-11T12:34:04.504Z,15.00
2023-05-11T12:36:33.342Z,14.90
2023-05-11T12:39:04.923Z,15.40
2023-05-11T12:41:32.688Z,15.20
2023-05-11T12:44:01.181Z,15.20
2023-05-11T12:46:28.442Z,15.00
2023-05-11T12:48:56.835Z,15.00
2023-05-11T12:51:47.948Z,14.90
2023-05-11T12:54:38.412Z,14.90
2023-05-11T12:57:07.630Z,15.00
2023-05-11T12:59:40.171Z,14.70
2023-05-11T13:02:16.189Z,14.40
2023-05-11T13:04:44.751Z,15.00
2023-05-11T13:07:15.227Z,15.40
2023-05-11T13:09:43.011Z,14.80
2023-05-11T13:12:20.888Z,14.60
2023-05-11T13:14:50.848Z,14.70
2023-05-11T13:17:34.871Z,14.50
2023-05-11T13:20:21.649Z,14.30
2023-05-11T13:22:49.728Z,14.70
2023-05-11T13:25:20.951Z,15.00
2023-05-11T13:27:48.201Z,15.50
2023-05-11T13:30:15.462Z,16.10
2023-05-11T13:32:42.504Z,16.20
2023-05-11T13:35:09.893Z,15.80
2023-05-11T13:37:37.505Z,15.50
2023-05-11T13:40:06.892Z,15.00
2023-05-11T13:42:34.081Z,14.90
2023-05-11T13:45:01.073Z,14.90
2023-05-11T13:47:28.296Z,15.30
2023-05-11T13:49:55.421Z,14.90
2023-05-11T13:52:22.617Z,15.40
2023-05-11T13:54:51.535Z,15.30
2023-05-11T13:57:19.085Z,15.20
2023-05-11T13:59:46.623Z,15.00
2023-05-11T14:02:14.283Z,15.00
2023-05-11T14:04:41.806Z,15.30
2023-05-11T14:07:11.917Z,15.40
2023-05-11T14:09:39.170Z,15.10
2023-05-11T14:12:07.093Z,15.50
2023-05-11T14:14:34.260Z,15.10
2023-05-11T14:17:01.578Z,15.20
2023-05-11T14:19:29.277Z,15.20
2023-05-11T14:21:56.985Z,15.30
2023-05-11T14:24:24.110Z,15.30
2023-05-11T14:26:51.273Z,15.50
2023-05-11T14:29:18.505Z,15.40
2023-05-11T14:31:47.681Z,15.30
2023-05-11T14:34:14.806Z,15.70
2023-05-11T14:36:41.984Z,15.20
2023-05-11T14:39:09.039Z,15.70
2023-05-11T14:41:36.440Z,15.90
2023-05-11T14:44:04.822Z,15.70
2023-05-11T14:46:32.133Z,15.80
2023-05-11T14:48:59.256Z,15.90
2023-05-11T14:51:26.339Z,16.30
2023-05-11T14:53:53.608Z,17.40
2023-05-11T14:56:22.348Z,16.90
2023-05-11T14:58:49.609Z,17.50
2023-05-11T15:01:16.897Z,17.70
2023-05-11T15:03:44.122Z,17.90
2023-05-11T15:06:11.375Z,17.60
2023-05-11T15:08:38.740Z,18.00
2023-05-11T15:11:06.168Z,18.00
2023-05-11T15:13:33.277Z,18.00
2023-05-11T15:16:00.629Z,17.40
2023-05-11T15:18:27.751Z,17.10
2023-05-11T15:20:54.975Z,17.20
2023-05-11T15:23:22.105Z,17.70
2023-05-11T15:25:49.523Z,17.80
2023-05-11T15:28:16.642Z,18.00
2023-05-11T15:30:44.034Z,18.00
2023-05-11T15:33:11.379Z,17.80
2023-05-11T15:35:38.687Z,17.90
2023-05-11T15:38:06.343Z,17.50
2023-05-11T15:40:33.824Z,17.70
2023-05-11T15:43:02.105Z,17.20
2023-05-11T15:45:29.681Z,18.00
2023-05-11T15:47:57.564Z,17.40
2023-05-11T15:50:24.831Z,17.50
2023-05-11T15:52:51.904Z,17.50
2023-05-11T15:55:19.070Z,17.50
2023-05-11T15:57:46.161Z,17.40
2023-05-11T16:00:14.114Z,17.10
2023-05-11T16:02:42.954Z,16.90
2023-05-11T16:05:10.273Z,17.40
2023-05-11T16:07:37.410Z,17.80
2023-05-11T16:10:05.156Z,17.70
2023-05-11T16:12:32.177Z,17.80
2023-05-11T16:14:59.248Z,17.70
2023-05-11T16:17:26.410Z,17.40
2023-05-11T16:19:53.602Z,17.70
2023-05-11T16:22:23.902Z,17.70
2023-05-11T16:24:51.194Z,17.20
2023-05-11T16:27:18.314Z,17.50
2023-05-11T16:29:45.837Z,17.70
2023-05-11T16:32:15.153Z,17.60
2023-05-11T16:34:44.786Z,17.70
2023-05-11T16:37:11.851Z,17.50
2023-05-11T16:39:38.922Z,17.50
2023-05-11T16:42:07.647Z,17.10
2023-05-11T16:44:34.652Z,16.80
2023-05-11T16:47:01.897Z,17.10
2023-05-11T16:49:28.951Z,17.20
2023-05-11T16:51:55.984Z,16.90
2023-05-11T16:54:23.368Z,17.20
2023-05-11T16:56:52.101Z,16.90
2023-05-11T16:59:19.474Z,17.20
2023-05-11T17:01:48.879Z,17.30
2023-05-11T17:04:16.790Z,17.70
2023-05-11T17:06:43.995Z,16.90
2023-05-11T17:09:10.987Z,16.90
2023-05-11T17:11:37.932Z,17.10
2023-05-11T17:14:04.913Z,17.30
2023-05-11T17:16:32.355Z,17.70
2023-05-11T17:18:59.728Z,17.60
2023-05-11T17:21:26.907Z,17.30
2023-05-11T17:23:53.969Z,17.20
2023-05-11T17:26:25.089Z,17.30
2023-05-11T17:28:54.490Z,17.40
2023-05-11T17:31:21.569Z,17.90
2023-05-11T17:33:48.792Z,18.10
2023-05-11T17:36:15.914Z,18.00
2023-05-11T17:38:43.164Z,17.90
2023-05-11T17:41:10.413Z,17.70
2023-05-11T17:43:38.132Z,17.70
2023-05-11T17:46:05.502Z,17.80
2023-05-11T17:48:32.647Z,18.00
2023-05-11T17:51:00.278Z,18.10
2023-05-11T17:53:27.495Z,18.20
2023-05-11T17:55:54.788Z,17.90
2023-05-11T17:58:21.981Z,17.90
2023-05-11T18:00:49.578Z,18.50
2023-05-11T18:03:17.148Z,18.40
2023-05-11T18:05:48.421Z,18.00
2023-05-11T18:08:15.945Z,18.00
2023-05-11T18:10:43.180Z,18.50
2023-05-11T18:13:10.346Z,18.50
2023-05-11T18:15:38.426Z,18.30
2023-05-11T18:18:06.804Z,19.00
2023-05-11T18:20:34.515Z,18.00
2023-05-11T18:23:01.681Z,18.20
2023-05-11T18:25:32.499Z,17.80
2023-05-11T18:27:59.513Z,17.70
2023-05-11T18:30:28.709Z,17.60
2023-05-11T18:32:56.298Z,18.00
2023-05-11T18:35:26.213Z,17.70
2023-05-11T18:37:53.719Z,17.90
2023-05-11T18:40:22.747Z,17.70
2023-05-11T18:42:49.932Z,17.80
2023-05-11T18:45:17.515Z,17.50
2023-05-11T18:47:46.345Z,17.80
2023-05-11T18:50:17.344Z,17.90
2023-05-11T18:52:44.649Z,18.00
2023-05-11T18:55:11.870Z,17.60
2023-05-11T18:57:40.220Z,17.60
2023-05-11T19:00:07.946Z,17.80
2023-05-11T19:02:35.129Z,17.80
2023-05-11T19:05:02.983Z,17.60
2023-05-11T19:07:30.549Z,17.20
2023-05-11T19:09:58.343Z,17.00
2023-05-11T19:12:25.450Z,17.10
2023-05-11T19:14:56.257Z,17.10
2023-05-11T19:17:23.853Z,17.10
2023-05-11T19:19:52.477Z,17.00
2023-05-11T19:22:21.442Z,17.10
2023-05-11T19:24:48.431Z,17.80
2023-05-11T19:27:15.803Z,17.10
2023-05-11T19:29:43.061Z,17.00
2023-05-11T19:32:12.759Z,17.30
2023-05-11T19:34:39.945Z,17.20
2023-05-11T19:37:07.203Z,17.30
2023-05-11T19:39:34.312Z,17.30
2023-05-11T19:42:01.501Z,17.40
2023-05-11T19:44:34.908Z,17.30
2023-05-11T19:47:02.002Z,17.50
2023-05-11T19:49:29.434Z,17.20
2023-05-11T19:51:56.449Z,17.20
2023-05-11T19:54:25.969Z,17.50
2023-05-11T19:56:53.077Z,17.50
2023-05-11T19:59:20.364Z,17.70
2023-05-11T20:01:47.538Z,17.10
2023-05-11T20:04:15.065Z,17.50
2023-05-11T20:06:42.458Z,17.50
2023-05-11T20:09:09.578Z,17.80
2023-05-11T20:11:36.562Z,18.00
2023-05-11T20:14:04.784Z,17.50
2023-05-11T20:16:32.186Z,17.20
2023-05-11T20:18:59.705Z,17.60
2023-05-11T20:21:28.452Z,17.60
2023-05-11T20:23:56.021Z,17.60
2023-05-11T20:26:23.467Z,17.70
2023-05-11T20:28:50.437Z,17.80
2023-05-11T20:31:22.538Z,17.60
2023-05-11T20:36:19.668Z,17.30
2023-05-11T20:38:49.438Z,17.60
2023-05-11T20:41:16.434Z,17.80
2023-05-11T20:43:43.628Z,18.80
2023-05-11T20:46:11.704Z,18.30
2023-05-11T20:48:40.928Z,18.00
2023-05-11T20:51:10.682Z,18.10
2023-05-11T20:53:38.485Z,18.50
2023-05-11T20:56:06.217Z,17.90
2023-05-11T20:58:33.214Z,17.60
2023-05-11T21:01:00.267Z,17.80
2023-05-11T21:03:27.895Z,17.50
2023-05-11T21:05:56.499Z,17.60
2023-05-11T21:08:24.254Z,17.60
2023-05-11T21:10:51.229Z,18.20
2023-05-11T21:13:18.300Z,17.70
2023-05-11T21:15:45.648Z,17.90
2023-05-11T21:18:13.068Z,17.20
2023-05-11T21:20:42.072Z,17.50
2023-05-11T21:23:09.332Z,17.70
2023-05-11T21:25:36.373Z,17.80
2023-05-11T21:28:04.250Z,17.60
2023-05-11T21:30:32.923Z,17.80
2023-05-11T21:33:00.196Z,17.50
2023-05-11T21:35:27.821Z,17.60
2023-05-11T21:37:54.823Z,18.50
2023-05-11T21:40:22.352Z,17.90
2023-05-11T21:42:52.630Z,17.90
2023-05-11T21:45:21.598Z,18.00
2023-05-11T21:47:48.610Z,17.80
2023-05-11T21:50:17.642Z,17.60
2023-05-11T21:52:45.017Z,17.70
2023-05-11T21:55:13.295Z,17.80
2023-05-11T21:57:40.267Z,17.60
2023-05-11T22:00:09.363Z,17.50
2023-05-11T22:02:37.396Z,17.50
2023-05-11T22:05:04.798Z,17.50
2023-05-11T22:07:32.056Z,17.20
2023-05-11T22:09:59.110Z,17.40
2023-05-11T22:12:26.168Z,17.10
2023-05-11T22:14:53.201Z,17.40
2023-05-11T22:17:20.365Z,17.40
2023-05-11T22:19:47.415Z,17.30
2023-05-11T22:22:14.563Z,17.30
2023-05-11T22:24:41.572Z,17.30
2023-05-11T22:27:15.610Z,17.00
2023-05-11T22:29:43.289Z,17.10
2023-05-11T22:32:10.997Z,16.90
2023-05-11T22:34:38.434Z,17.30
2023-05-11T22:37:05.931Z,17.10
2023-05-11T22:39:33.696Z,17.70
2023-05-11T22:42:01.124Z,17.20
2023-05-11T22:44:28.509Z,17.00
2023-05-11T22:46:56.547Z,16.90
2023-05-11T22:49:23.647Z,17.50
2023-05-11T22:51:50.685Z,17.40
2023-05-11T22:54:17.810Z,17.40
2023-05-11T22:56:44.730Z,17.50
2023-05-11T22:59:12.641Z,17.60
2023-05-11T23:01:39.744Z,17.50
2023-05-11T23:04:06.705Z,17.70
2023-05-11T23:06:33.751Z,17.40
2023-05-11T23:09:01.151Z,17.20
2023-05-11T23:11:28.312Z,17.20
2023-05-11T23:13:55.228Z,17.40
2023-05-11T23:16:22.400Z,17.20
2023-05-11T23:18:49.583Z,17.00
2023-05-11T23:21:16.743Z,17.50
2023-05-11T23:23:44.068Z,17.10
2023-05-11T23:26:11.233Z,17.20
2023-05-11T23:28:38.402Z,17.40
2023-05-11T23:31:06.641Z,17.50
2023-05-11T23:33:33.635Z,17.60
2023-05-11T23:36:00.893Z,17.70
2023-05-11T23:38:28.117Z,17.80
2023-05-11T23:40:55.129Z,18.10
2023-05-11T23:43:22.854Z,18.10
2023-05-11T23:45:49.899Z,18.20
2023-05-11T23:48:16.923Z,18.60
2023-05-11T23:50:43.941Z,18.40
2023-05-11T23:53:10.881Z,18.50
2023-05-11T23:55:37.960Z,18.60
2023-05-11T23:58:05.006Z,18.70
